x

Lake Simcoe (45151) Wave Buoy

9:00pm - Sun 20th Aug 2017 All times are CDT. -5 hours from GMT.

  • Sig Wave height 0.3ft
  • Peak Period 2s
  • Wind
    4mph, 4mph gusts
  • Sea Temp 72°f
  • Air Temp 72°f
  • Sea Pressure 1018.7mb
  • Lake Simcoe
  • Lake Simcoe

More Historic Weather Station data

Upgrade to MSW Pro to gain access to the past 30 days of data for over 8000 Wavebouys and Weather Stations around the globe.

Join

Comparision Forecast

View Surf forecast
   
Sun 08/20 9:00pm 0.3ft 2s 4 4 mph 1018.7mb 72f 72f
8:00pm 0.3ft 2s 4 4 mph 1018.5mb 72f 73f
7:00pm 0.3ft 2s 7 9 mph 1017.8mb 72f 75f
6:00pm 0.3ft 2s 7 9 mph 1017.4mb 73f 77f
5:00pm 0.3ft 2s 2 4 mph 1017.1mb 73f 77f
4:00pm 0.3ft 2s 4 7 mph 1017.1mb 73f 76f
3:00pm 0.3ft 2s 4 7 mph 1017.3mb 73f 75f
2:00pm 0.3ft 2s 7 7 mph 1017.8mb 72f 74f
1:00pm 0.3ft 2s 7 9 mph 1018mb 72f 73f
12:00pm 0.3ft 2s 9 11 mph 1018mb 71f 72f
11:00am 0.3ft 2s 9 9 mph 1018.1mb 71f 70f
10:00am 0.3ft 2s 9 9 mph 1018.2mb 71f 69f
9:00am 0.3ft 2s 9 9 mph 1017.7mb 70f 66f
8:00am 0.3ft 2s 7 9 mph 1017.2mb 70f 66f
7:00am 0.3ft 2s 9 11 mph 1017.2mb 70f 65f
6:00am 0.3ft 2s 7 9 mph 1016.9mb 70f 65f
5:00am 0.7ft 2s 9 9 mph 1016.3mb 70f 64f
4:00am 0.7ft 2s 9 11 mph 1015.9mb 70f 64f
3:00am 0.7ft 2s 11 11 mph 1015.5mb 70f 64f
2:00am 0.7ft 3s 11 13 mph 1015.1mb 70f 63f
1:00am 0.7ft 2s 13 16 mph 1014.9mb 70f 63f
12:00am 0.7ft 2s 11 13 mph 1014.8mb 70f 64f
Sat 08/19 11:00pm 0.7ft 2s 9 11 mph 1014.1mb 70f 64f
10:00pm 0.3ft 2s 9 11 mph 1013.8mb 70f 64f
9:00pm 0.3ft 2s 9 13 mph 1013.4mb 71f 65f
8:00pm 0.7ft 2s 11 13 mph 1012.7mb 71f 65f
7:00pm 1ft 2s 13 18 mph 1011.9mb 71f 66f
6:00pm 1ft 2s 16 18 mph 1011.1mb 71f 67f
5:00pm 1.3ft 2s 18 25 mph 1010.5mb 71f 67f
4:00pm 1.3ft 3s 20 27 mph 1010.5mb 71f 68f
3:00pm 1.3ft 3s 18 22 mph 1010.1mb 71f 68f
2:00pm 1ft 3s 20 27 mph 1010mb 71f 66f
1:00pm 1.3ft 3s 16 18 mph 1010.2mb 71f 65f
12:00pm 1ft 3s 16 18 mph 1009.8mb 71f 68f
11:00am 0.7ft 3s 13 18 mph 1009.9mb 71f 68f
10:00am 1ft 3s 13 18 mph 1009.7mb 71f 68f
9:00am 1ft 2s 13 16 mph 1009.6mb 71f 66f
8:00am 1ft 2s 13 18 mph 1009.3mb 71f 65f
7:00am 0.7ft 2s 16 18 mph 1009mb 71f 65f
6:00am 0.7ft 3s 13 18 mph 1008.6mb 71f 64f
5:00am 1ft 2s 13 18 mph 1008.3mb 71f 64f
4:00am 0.7ft 2s 16 18 mph 1008.3mb 71f 65f
3:00am 0.7ft 2s 13 16 mph 1008.4mb 71f 65f
2:00am 0.7ft 2s 13 16 mph 1008.6mb 71f 66f
1:00am 0.7ft 2s 13 18 mph 1008.9mb 71f 67f
12:00am 0.7ft 2s 11 13 mph 1008.8mb 71f 67f
Fri 08/18 11:00pm 0.7ft 3s 11 13 mph 1008.2mb 71f 67f
10:00pm 1ft 3s 11 16 mph 1007.9mb 71f 67f
9:00pm 1ft 3s 13 18 mph 1007.7mb 71f 67f
8:00pm 1.3ft 3s 11 13 mph 1007.3mb 71f 67f
7:00pm 1.3ft 3s 13 18 mph 1006.6mb 71f 70f
6:00pm 1.3ft 3s 16 20 mph 1006.1mb 71f 71f
5:00pm 1.3ft 3s 18 22 mph 1005.9mb 71f 71f
4:00pm 1.3ft 3s 18 20 mph 1005.3mb 71f 73f
3:00pm 2ft 4s 16 18 mph 1005.1mb 71f 71f
2:00pm 2.5ft 4s 13 18 mph 1004.9mb 71f 72f
1:00pm  -   -  20
mph
1004.4mb - 73f
12:00pm 1.6ft 3s 18 22 mph 1004.5mb 71f 74f
11:00am 1.3ft 3s 16 20 mph 1004.4mb 71f 73f
10:00am 1ft 3s 13 16 mph 1004.8mb 71f 73f
9:00am 1.3ft 3s 11 13 mph 1005mb 71f 72f
8:00am 1ft 3s 13 16 mph 1005.2mb 71f 71f
7:00am 1.3ft 3s 13 16 mph 1005.3mb 71f 71f
6:00am 1.3ft 3s 16 20 mph 1005.3mb 71f 71f
5:00am 1ft 3s 11 13 mph 1005.1mb 71f 70f
4:00am 0.7ft 2s 11 16 mph 1004.9mb 71f 70f
3:00am 1ft 2s 13 16 mph 1004.9mb 71f 70f
2:00am 1ft 3s 13 16 mph 1005.1mb 71f 69f
1:00am 1ft 3s 11 13 mph 1005.6mb 71f 68f
12:00am 1.3ft 3s 11 13 mph 1006.6mb 71f 66f
Thu 08/17 11:00pm 1.6ft 3s 11 13 mph 1007.7mb 71f 65f
10:00pm 1.6ft 3s 16 18 mph 1008.2mb 71f 65f
9:00pm 1.3ft 3s 13 18 mph 1008.7mb 71f 65f
8:00pm 1.3ft 3s 13 16 mph 1009.6mb 71f 64f
7:00pm 1.6ft 3s 11 16 mph 1010.2mb 71f 62f
6:00pm 2ft 3s 16 20 mph 1011.2mb 71f 62f
5:00pm 2ft 3s 18 22 mph 1011.1mb 71f 65f
4:00pm 1.6ft 3s 18 20 mph 1012mb 71f 66f
3:00pm 1.6ft 3s 20 25 mph 1012.6mb 71f 68f
2:00pm 1.3ft 3s 18 20 mph 1013.6mb 71f 70f
1:00pm 1.6ft 3s 18 20 mph 1014mb 71f 71f
12:00pm 1.6ft 3s 18 20 mph 1014.6mb 71f 73f
11:00am 1.6ft 3s 16 18 mph 1015.5mb 71f 72f
10:00am 1.6ft 3s 18 20 mph 1016mb 71f 71f
9:00am 1.3ft 3s 18 20 mph 1016.4mb 71f 69f
8:00am 1ft 2s 13 16 mph 1016.7mb 71f 69f
7:00am 0.7ft 2s 11 13 mph 1017.4mb 71f 67f
6:00am 0.7ft 2s 9 11 mph 1017.4mb 71f 66f
5:00am 0.7ft 2s 9 9 mph 1017.3mb 71f 66f
4:00am 0.7ft 2s 9 11 mph 1017.2mb 71f 66f